createdAt,value
2022-08-21T00:06:38.261Z,7.80
2022-08-21T00:17:00.249Z,7.47
2022-08-21T00:27:23.142Z,7.75
2022-08-21T00:37:44.666Z,7.75
2022-08-21T00:48:07.953Z,8.25
2022-08-21T00:58:31.617Z,7.57
2022-08-21T01:08:54.650Z,7.35
2022-08-21T01:19:17.887Z,7.95
2022-08-21T01:29:46.378Z,7.07
2022-08-21T01:40:09.753Z,7.20
2022-08-21T01:50:33.260Z,7.43
2022-08-21T02:00:55.445Z,6.20
2022-08-21T02:11:18.221Z,6.20
2022-08-21T02:21:39.539Z,5.45
2022-08-21T02:32:02.478Z,4.82
2022-08-21T02:42:25.150Z,5.25
2022-08-21T02:52:48.717Z,5.18
2022-08-21T03:03:14.714Z,4.78
2022-08-21T03:13:37.776Z,5.05
2022-08-21T03:23:59.493Z,4.68
2022-08-21T03:34:27.320Z,4.55
2022-08-21T03:44:49.119Z,4.80
2022-08-21T03:55:11.872Z,4.57
2022-08-21T04:05:33.961Z,4.45
2022-08-21T04:15:58.977Z,4.60
2022-08-21T04:26:20.569Z,4.00
2022-08-21T04:36:43.344Z,3.70
2022-08-21T04:47:06.751Z,4.65
2022-08-21T04:57:39.747Z,4.32
2022-08-21T05:08:14.285Z,4.40
2022-08-21T05:18:37.155Z,4.40
2022-08-21T05:28:58.944Z,4.70
2022-08-21T05:39:22.004Z,4.60
2022-08-21T05:49:43.599Z,4.50
2022-08-21T06:00:09.767Z,4.20
2022-08-21T06:10:34.292Z,4.00
2022-08-21T06:20:56.964Z,3.63
2022-08-21T06:31:22.011Z,3.22
2022-08-21T06:41:44.937Z,3.23
2022-08-21T06:52:11.866Z,3.53
2022-08-21T07:02:35.036Z,2.95
2022-08-21T07:13:00.521Z,2.83
2022-08-21T07:23:28.564Z,3.22
2022-08-21T07:33:49.830Z,3.22
2022-08-21T07:44:12.744Z,2.38
2022-08-21T07:54:37.145Z,2.33
2022-08-21T08:05:02.846Z,2.60
2022-08-21T08:15:27.113Z,2.15
2022-08-21T08:25:50.553Z,1.90
2022-08-21T08:36:16.711Z,2.10
2022-08-21T08:46:43.857Z,2.03
2022-08-21T08:57:12.741Z,1.77
2022-08-21T09:07:42.087Z,1.90
2022-08-21T09:18:26.539Z,1.83
2022-08-21T09:28:54.526Z,2.03
2022-08-21T09:39:25.833Z,1.83
2022-08-21T09:49:48.645Z,1.85
2022-08-21T10:00:17.320Z,2.00
2022-08-21T10:10:40.482Z,2.10
2022-08-21T10:21:12.102Z,1.90
2022-08-21T10:31:50.604Z,1.90
2022-08-21T10:42:28.493Z,1.98
2022-08-21T10:53:19.842Z,1.90
2022-08-21T11:03:46.336Z,1.90
2022-08-21T11:14:26.846Z,2.05
2022-08-21T11:24:54.479Z,1.98
2022-08-21T11:35:25.500Z,2.05
2022-08-21T11:45:50.835Z,1.83
2022-08-21T11:56:20.027Z,1.42
2022-08-21T12:06:43.346Z,1.83
2022-08-21T12:17:12.207Z,1.85
2022-08-21T12:27:48.274Z,1.70
2022-08-21T12:38:16.765Z,1.85
2022-08-21T12:48:47.296Z,1.67
2022-08-21T12:59:14.666Z,1.73
2022-08-21T13:09:37.031Z,1.20
2022-08-21T13:20:02.150Z,1.27
2022-08-21T13:30:24.551Z,1.20
2022-08-21T13:40:51.626Z,1.63
2022-08-21T13:51:12.869Z,1.70
2022-08-21T14:01:40.893Z,1.63
2022-08-21T14:12:13.586Z,2.00
2022-08-21T14:22:48.237Z,1.85
2022-08-21T14:33:12.314Z,1.90
2022-08-21T14:43:35.330Z,2.15
2022-08-21T14:53:56.857Z,2.33
2022-08-21T15:04:19.720Z,2.50
2022-08-21T15:14:42.175Z,2.10
2022-08-21T15:25:05.736Z,2.00
2022-08-21T15:35:27.519Z,2.38
2022-08-21T15:45:50.739Z,2.80
2022-08-21T15:56:16.600Z,4.03
2022-08-21T16:06:55.593Z,3.25
2022-08-21T16:17:22.456Z,2.53
2022-08-21T16:38:09.679Z,3.10
2022-08-21T16:48:32.443Z,4.13
2022-08-21T16:58:56.185Z,2.93
2022-08-21T17:09:19.431Z,4.60
2022-08-21T17:19:42.038Z,3.15
2022-08-21T17:30:07.201Z,3.22
2022-08-21T17:40:29.446Z,2.80
2022-08-21T17:50:52.444Z,4.53
2022-08-21T18:01:14.049Z,3.75
2022-08-21T18:11:37.492Z,3.67
2022-08-21T18:22:03.892Z,5.43
2022-08-21T18:32:31.496Z,4.05
2022-08-21T18:42:55.888Z,5.18
2022-08-21T18:53:27.617Z,5.32
2022-08-21T19:03:50.895Z,4.95
2022-08-21T19:14:17.368Z,5.18
2022-08-21T19:24:40.973Z,5.18
2022-08-21T19:35:17.563Z,5.50
2022-08-21T19:45:43.578Z,5.68
2022-08-21T19:56:15.791Z,6.40
2022-08-21T20:06:38.301Z,5.90
2022-08-21T20:17:05.967Z,5.50
2022-08-21T20:27:31.649Z,6.60
2022-08-21T20:38:03.685Z,5.80
2022-08-21T20:48:28.934Z,6.38
2022-08-21T20:58:58.775Z,6.97
2022-08-21T21:09:31.981Z,6.95
2022-08-21T21:19:59.195Z,7.30
2022-08-21T21:30:23.651Z,7.05
2022-08-21T21:40:58.520Z,6.95
2022-08-21T21:51:35.282Z,6.80
2022-08-21T22:02:08.008Z,7.50
2022-08-21T22:12:49.570Z,7.38
2022-08-21T22:23:17.883Z,7.70
2022-08-21T22:33:39.657Z,7.05
2022-08-21T22:44:06.031Z,7.47
2022-08-21T22:54:35.005Z,7.72
2022-08-21T23:05:01.550Z,7.70
2022-08-21T23:15:24.469Z,7.47
2022-08-21T23:26:01.879Z,7.10
2022-08-21T23:37:02.777Z,8.40
2022-08-21T23:47:40.701Z,7.47
2022-08-21T23:58:15.517Z,7.55
